KMIB/MIB METAR and TAF weather

Enter ICAO airport designator
Station Type Date Time Source
KMIB METAR 2019/06/17 13:56 UTC NOAA

KMIB 171356Z AUTO 01005KT 10SM CLR 14/09 A3006 RMK AO2 SLP187 T01370087 $


Station Type Date Time Source
KMIB Decoded METAR 2019/06/17 13:56 UTC NOAA

Minot Air Force Base, ND, United States (KMIB) 48-25N 101-21W
Jun 17, 2019 - 09:56 AM EDT / 2019.06.17 1356 UTC
Wind: from the N (010 degrees) at 6 MPH (5 KT):0
Visibility: 10 mile(s):0
Sky conditions: clear
Temperature: 56.7 F (13.7 C)
Dew Point: 47.7 F (8.7 C)
Relative Humidity: 71%
Pressure (altimeter): 30.06 in. Hg (1017 hPa)
ob: KMIB 171356Z AUTO 01005KT 10SM CLR 14/09 A3006 RMK AO2 SLP187 T01370087
cycle: 14

Station Type Date Time Source
KMIB TAF 2019/06/17 09:12 UTC NOAA

TAF
AMD KMIB 170907Z 1709/1815 35006KT 9999 SCT040 BKN060 620608 QNH3000INS
BECMG 1723/1724 VRB06KT 9999 SCT080 QNH2999INS TX18/1722Z TN07/1808Z

Example: see airport list